< < Back
Terminal Aerodrome Forecast


Current Version              Previous Versions:   1  2  3  4  5  6  7  8  9  

Terminal Aerodrome Forecast

497
FTUS42 KTAE 222300 RRA
TAFTLH
TAF
KTLH 222347Z 2300/2324 08010KT 5SM RA BR BKN010 OVC040
     FM231400 17014G20KT P6SM SCT035 BKN100
     FM232000 19012G18KT P6SM VCTS SCT035CB BKN100=

Latest METAR

336
SAUS80 KWBC 221700 RRH
MTRTLH
METAR KTLH 231653Z 17009G18KT 2SM BR OVC003 22/20 A2987 RMK AO2
RAB1556E06B37E43 PRESFR SLP115 P0000 T02220200 $


USA.gov is the U.S. government's official web portal to all federal, state and local government web resources and services.